Ayrshire, Iowa
Current Conditions -  °F | °C
As of 11:14 PM on Monday 22 Dec 2014 (Local Time) from KSPW Reporting Station
Light Snow Light Snow  
Wind Chill: 26°   Ceiling: 300
Heat Index: 34°   Visibility: 2.5mi
Dew Point: 32°   Wind: 10mph
Humidity: 92%   Direction: 60°ENE
Pressure: 29.5"   Gusts: NA
Location:  43.04°N, 94.83°W
Report Text: KSPW 230514Z AUTO 06009KT 2 1/2SM -SN BR OVC003 01/00 A2950 RMK AO2 P0000 T00110000 TSNO
Loading
Personal Weather Stations






























Interactive Weather Map New forecast layout! Learn more

10-Day Weather Forecast

Advertisements
Track Severe Weather on mobile